In Rescue
 
Open Full Screen Window  High Contrast Mode
Wind Gusting 17 knots
10
November 29, 2022 7:56 AM CST
Present Weather: Light Snow
Weather Information
Wind Direction
  340 °
Wind Speed
  10 kt (12 mph)
Wind Gust
  17 kt (20 mph)
Altimeter
29.72 in
Visibility
3/4 SM
Temperature
-04° C
25° F
Dewpoint
-05° C
23° F
Humidity
93%
1hr Rain Fall
00.00 in.
24hr Rain Fall
00.01 in.
Sky Condition
Overcast @ 800 ft
IFR

METAR KLYV 291356Z AUTO 34010G17KT 3/4SM -SN OVC008 M04/M05 A2972 RMK AO2

FAA Disclaimer: The data displayed is for advisory purposes only and is not to be used for flight planning or operations.